Amity, Missouri
Current Conditions -  °F | °C
As of 1:36 PM on Thursday 23 Oct 2014 (Local Time) from KSTJ Reporting Station
Overcast Overcast  
Wind Chill: 21°   Ceiling: 4200
Heat Index: 21°   Visibility: 10mi
Dew Point: 16°   Wind: 10mph
Humidity: 75%   Direction: 220°SW
Pressure: 30.06"   Gusts: NA
Location:  39.87°N, 94.44°W
Report Text: KSTJ 231836Z 22009KT 10SM SCT016 OVC042 21/16 A3006 RMK AO2 T02060161
Loading
Personal Weather Stations






























Interactive Weather Map
Tropical Storm Tracking
New forecast layout! Learn more

10-Day Weather Forecast

Advertisements
Track Severe Weather on mobile